createdAt,value
2023-05-09T00:00:48.340Z,19.13
2023-05-09T00:03:16.394Z,19.43
2023-05-09T00:05:44.481Z,19.47
2023-05-09T00:08:12.548Z,20.87
2023-05-09T00:10:40.599Z,20.37
2023-05-09T00:13:08.617Z,20.83
2023-05-09T00:15:37.897Z,19.33
2023-05-09T00:18:05.970Z,19.30
2023-05-09T00:20:34.964Z,20.37
2023-05-09T00:23:02.933Z,19.73
2023-05-09T00:25:30.932Z,20.60
2023-05-09T00:27:58.922Z,19.90
2023-05-09T00:30:26.946Z,20.37
2023-05-09T00:32:56.316Z,19.80
2023-05-09T00:35:24.661Z,20.20
2023-05-09T00:37:52.687Z,19.67
2023-05-09T00:40:20.815Z,20.27
2023-05-09T00:42:48.816Z,19.67
2023-05-09T00:45:16.727Z,19.37
2023-05-09T00:47:44.804Z,18.07
2023-05-09T00:50:14.855Z,18.40
2023-05-09T00:52:43.494Z,18.07
2023-05-09T00:55:12.493Z,15.97
2023-05-09T00:57:41.008Z,17.03
2023-05-09T01:00:13.211Z,17.37
2023-05-09T01:02:42.455Z,17.10
2023-05-09T01:05:11.000Z,15.63
2023-05-09T01:07:53.269Z,15.07
2023-05-09T01:10:27.811Z,14.60
2023-05-09T01:13:05.009Z,15.33
2023-05-09T01:15:37.928Z,14.50
2023-05-09T01:18:12.608Z,15.33
2023-05-09T01:20:45.615Z,14.90
2023-05-09T01:23:43.965Z,14.53
2023-05-09T01:26:20.044Z,14.43
2023-05-09T01:29:16.738Z,15.07
2023-05-09T01:31:47.234Z,16.30
2023-05-09T01:34:18.541Z,18.77
2023-05-09T01:36:51.263Z,17.93
2023-05-09T01:39:21.021Z,18.80
2023-05-09T01:41:49.746Z,18.17
2023-05-09T01:44:19.574Z,17.03
2023-05-09T01:46:48.654Z,16.77
2023-05-09T01:49:18.505Z,16.63
2023-05-09T01:51:47.868Z,17.23
2023-05-09T01:54:17.633Z,15.13
2023-05-09T01:56:47.006Z,15.30
2023-05-09T01:59:17.048Z,15.77
2023-05-09T02:01:47.751Z,15.53
2023-05-09T02:04:18.143Z,16.37
2023-05-09T02:06:50.641Z,16.53
2023-05-09T02:09:19.933Z,15.37
2023-05-09T02:11:48.176Z,15.77
2023-05-09T02:14:16.356Z,15.73
2023-05-09T02:16:45.739Z,16.23
2023-05-09T02:19:13.696Z,14.60
2023-05-09T02:21:42.692Z,16.33
2023-05-09T02:24:12.242Z,15.70
2023-05-09T02:26:41.440Z,15.83
2023-05-09T02:29:11.533Z,15.87
2023-05-09T02:31:42.352Z,15.97
2023-05-09T02:34:12.894Z,16.37
2023-05-09T02:36:41.750Z,17.00
2023-05-09T02:39:09.876Z,16.73
2023-05-09T02:41:37.795Z,16.40
2023-05-09T02:44:06.094Z,15.37
2023-05-09T02:46:35.303Z,16.07
2023-05-09T02:49:03.250Z,16.10
2023-05-09T02:51:32.588Z,15.90
2023-05-09T02:54:00.535Z,15.40
2023-05-09T02:56:28.627Z,16.00
2023-05-09T02:58:56.582Z,15.17
2023-05-09T03:01:25.110Z,15.63
2023-05-09T03:03:53.205Z,16.17
2023-05-09T03:06:22.416Z,15.27
2023-05-09T03:08:51.781Z,16.53
2023-05-09T03:11:23.293Z,16.80
2023-05-09T03:13:51.253Z,16.70
2023-05-09T03:16:19.783Z,16.27
2023-05-09T03:18:48.096Z,16.73
2023-05-09T03:21:16.060Z,16.57
2023-05-09T03:23:44.008Z,15.87
2023-05-09T03:26:13.336Z,17.30
2023-05-09T03:28:41.686Z,17.27
2023-05-09T03:31:10.105Z,17.73
2023-05-09T03:33:38.182Z,18.17
2023-05-09T03:36:06.497Z,17.60
2023-05-09T03:38:34.963Z,18.10
2023-05-09T03:41:03.912Z,18.30
2023-05-09T03:43:33.179Z,18.30
2023-05-09T03:46:01.174Z,17.93
2023-05-09T03:48:29.134Z,18.43
2023-05-09T03:50:58.180Z,18.03
2023-05-09T03:53:28.905Z,17.70
2023-05-09T03:55:57.381Z,17.70
2023-05-09T03:58:26.938Z,19.07
2023-05-09T04:00:56.340Z,18.87
2023-05-09T04:03:26.899Z,18.07
2023-05-09T04:05:55.917Z,18.43
2023-05-09T04:08:39.638Z,19.37
2023-05-09T04:11:07.743Z,19.23
2023-05-09T04:13:37.801Z,18.67
2023-05-09T04:16:14.872Z,19.20
2023-05-09T04:18:43.281Z,19.23
2023-05-09T04:21:11.291Z,19.67
2023-05-09T04:23:40.098Z,20.03
2023-05-09T04:26:09.706Z,20.13
2023-05-09T04:28:37.811Z,19.57
2023-05-09T04:31:07.074Z,21.13
2023-05-09T04:33:39.115Z,20.77
2023-05-09T04:36:07.849Z,22.27
2023-05-09T04:38:36.121Z,21.30
2023-05-09T04:41:08.117Z,22.17
2023-05-09T04:43:36.233Z,21.67
2023-05-09T04:46:04.404Z,21.93
2023-05-09T04:48:34.121Z,22.53
2023-05-09T04:51:03.613Z,20.37
2023-05-09T04:53:32.005Z,19.70
2023-05-09T04:56:00.422Z,19.63
2023-05-09T04:58:28.436Z,19.00
2023-05-09T05:00:57.950Z,18.13
2023-05-09T05:03:25.928Z,18.13
2023-05-09T05:05:54.142Z,16.87
2023-05-09T05:08:23.706Z,15.90
2023-05-09T05:10:51.834Z,16.70
2023-05-09T05:13:21.464Z,16.23
2023-05-09T05:15:53.552Z,14.97
2023-05-09T05:18:22.431Z,15.03
2023-05-09T05:20:50.595Z,14.93
2023-05-09T05:23:19.313Z,14.70
2023-05-09T05:25:48.696Z,14.87
2023-05-09T05:28:16.956Z,15.20
2023-05-09T05:30:45.465Z,14.37
2023-05-09T05:33:13.439Z,16.50
2023-05-09T05:35:41.374Z,13.13
2023-05-09T05:38:09.451Z,14.93
2023-05-09T05:40:38.205Z,14.37
2023-05-09T05:43:08.985Z,13.93
2023-05-09T05:45:39.016Z,15.13
2023-05-09T05:48:09.741Z,13.90
2023-05-09T05:50:37.793Z,14.67
2023-05-09T05:53:06.554Z,13.93
2023-05-09T05:55:35.004Z,13.90
2023-05-09T05:58:03.655Z,12.77
2023-05-09T06:00:33.072Z,12.07
2023-05-09T06:03:06.083Z,9.43
2023-05-09T06:05:44.000Z,9.57
2023-05-09T06:08:12.912Z,8.20
2023-05-09T06:10:41.743Z,8.03
2023-05-09T06:13:09.780Z,6.87
2023-05-09T06:15:42.282Z,6.80
2023-05-09T06:18:10.330Z,5.67
2023-05-09T06:20:38.359Z,4.97
2023-05-09T06:23:06.366Z,5.47
2023-05-09T06:25:34.429Z,4.90
2023-05-09T06:28:02.416Z,4.83
2023-05-09T06:30:30.439Z,4.70
2023-05-09T06:33:00.093Z,4.57
2023-05-09T06:35:28.166Z,4.33
2023-05-09T06:37:56.132Z,5.00
2023-05-09T06:40:24.096Z,4.97
2023-05-09T06:42:52.035Z,5.73
2023-05-09T06:45:21.674Z,4.90
2023-05-09T06:47:50.204Z,4.87
2023-05-09T06:50:19.646Z,5.00
2023-05-09T06:52:48.272Z,4.63
2023-05-09T06:55:16.584Z,4.57
2023-05-09T06:57:44.680Z,4.90
2023-05-09T07:00:14.011Z,4.43
2023-05-09T07:02:42.557Z,4.67
2023-05-09T07:05:11.220Z,4.20
2023-05-09T07:07:40.777Z,4.10
2023-05-09T07:10:12.365Z,4.60
2023-05-09T07:12:41.440Z,4.43
2023-05-09T07:15:10.901Z,4.50
2023-05-09T07:17:39.119Z,3.33
2023-05-09T07:20:08.374Z,3.60
2023-05-09T07:22:37.430Z,3.37
2023-05-09T07:25:08.851Z,3.13
2023-05-09T07:27:37.020Z,3.10
2023-05-09T07:30:05.570Z,3.10
2023-05-09T07:32:33.664Z,2.90
2023-05-09T07:35:01.991Z,2.80
2023-05-09T07:37:29.997Z,2.30
2023-05-09T07:39:57.989Z,2.80
2023-05-09T07:42:27.339Z,2.40
2023-05-09T07:44:55.546Z,2.80
2023-05-09T07:47:23.531Z,2.60
2023-05-09T07:49:51.937Z,2.70
2023-05-09T07:52:20.225Z,2.57
2023-05-09T07:54:48.250Z,2.40
2023-05-09T07:57:16.188Z,2.10
2023-05-09T07:59:45.588Z,1.50
2023-05-09T08:02:13.622Z,1.70
2023-05-09T08:04:42.094Z,1.97
2023-05-09T08:07:11.705Z,1.80
2023-05-09T08:09:39.781Z,1.80
2023-05-09T08:12:08.472Z,1.70
2023-05-09T08:14:36.447Z,1.70
2023-05-09T08:17:05.761Z,1.60
2023-05-09T08:19:33.680Z,1.80
2023-05-09T08:22:01.655Z,1.77
2023-05-09T08:24:29.658Z,1.73
2023-05-09T08:26:57.640Z,1.87
2023-05-09T08:29:25.865Z,1.70
2023-05-09T08:31:53.923Z,1.87
2023-05-09T08:34:23.442Z,1.47
2023-05-09T08:36:51.422Z,1.80
2023-05-09T08:39:19.424Z,1.70
2023-05-09T08:41:47.659Z,2.00
2023-05-09T08:44:15.732Z,1.73
2023-05-09T08:46:47.699Z,2.07
2023-05-09T08:49:16.987Z,1.87
2023-05-09T08:51:47.332Z,2.07
2023-05-09T08:54:16.320Z,1.60
2023-05-09T08:56:44.390Z,1.80
2023-05-09T08:59:12.709Z,1.87
2023-05-09T09:01:41.734Z,1.70
2023-05-09T09:04:11.892Z,1.63
2023-05-09T09:06:41.132Z,1.70
2023-05-09T09:09:12.537Z,1.83
2023-05-09T09:11:41.992Z,1.60
2023-05-09T09:14:14.004Z,1.70
2023-05-09T09:16:44.601Z,1.80
2023-05-09T09:19:15.593Z,1.60
2023-05-09T09:21:45.819Z,1.60
2023-05-09T09:24:16.023Z,1.53
2023-05-09T09:26:48.583Z,1.83
2023-05-09T09:29:17.850Z,1.67
2023-05-09T09:31:47.036Z,1.50
2023-05-09T09:34:21.252Z,1.70
2023-05-09T09:36:49.692Z,1.60
2023-05-09T09:39:19.327Z,1.57
2023-05-09T09:41:47.324Z,1.63
2023-05-09T09:44:16.740Z,1.63
2023-05-09T09:46:46.626Z,1.60
2023-05-09T09:49:15.753Z,1.60
2023-05-09T09:51:44.413Z,1.57
2023-05-09T09:54:13.814Z,1.43
2023-05-09T09:56:47.934Z,1.80
2023-05-09T09:59:18.090Z,1.80
2023-05-09T10:02:07.021Z,1.63
2023-05-09T10:04:37.601Z,1.50
2023-05-09T10:07:07.579Z,1.50
2023-05-09T10:09:37.933Z,1.70
2023-05-09T10:12:08.848Z,1.53
2023-05-09T10:14:39.214Z,1.37
2023-05-09T10:17:07.511Z,1.43
2023-05-09T10:19:39.074Z,1.70
2023-05-09T10:22:11.407Z,1.60
2023-05-09T10:24:43.456Z,1.60
2023-05-09T10:27:13.917Z,2.10
2023-05-09T10:29:47.244Z,1.80
2023-05-09T10:32:20.505Z,1.70
2023-05-09T10:34:52.462Z,1.90
2023-05-09T10:37:22.323Z,1.60
2023-05-09T10:39:53.759Z,1.70
2023-05-09T10:42:25.150Z,1.60
2023-05-09T10:44:54.604Z,1.50
2023-05-09T10:47:23.286Z,1.57
2023-05-09T10:49:51.385Z,1.60
2023-05-09T10:52:19.893Z,1.60
2023-05-09T10:55:00.924Z,1.60
2023-05-09T10:57:31.937Z,1.83
2023-05-09T11:00:01.427Z,1.60
2023-05-09T11:02:32.209Z,1.50
2023-05-09T11:05:17.119Z,1.70
2023-05-09T11:07:45.550Z,1.63
2023-05-09T11:10:17.417Z,1.60
2023-05-09T11:12:58.017Z,1.60
2023-05-09T11:15:27.812Z,1.77
2023-05-09T11:18:07.850Z,2.00
2023-05-09T11:20:36.786Z,1.50
2023-05-09T11:23:06.833Z,1.90
2023-05-09T11:25:34.913Z,1.83
2023-05-09T11:28:04.466Z,1.93
2023-05-09T11:30:41.704Z,1.70
2023-05-09T11:33:23.852Z,1.60
2023-05-09T11:36:15.924Z,1.80
2023-05-09T11:38:44.234Z,1.80
2023-05-09T11:41:12.709Z,1.63
2023-05-09T11:43:44.327Z,1.75
2023-05-09T11:46:12.891Z,1.80
2023-05-09T11:48:41.957Z,1.70
2023-05-09T11:51:17.500Z,1.70
2023-05-09T11:53:46.913Z,1.63
2023-05-09T11:56:15.387Z,1.60
2023-05-09T11:58:46.674Z,1.53
2023-05-09T12:01:14.708Z,1.90
2023-05-09T12:03:46.178Z,1.80
2023-05-09T12:06:18.318Z,1.50
2023-05-09T12:08:47.098Z,2.00
2023-05-09T12:11:15.776Z,1.73
2023-05-09T12:13:49.442Z,1.73
2023-05-09T12:16:18.485Z,1.70
2023-05-09T12:18:47.979Z,1.83
2023-05-09T12:21:16.298Z,1.63
2023-05-09T12:23:44.627Z,1.80
2023-05-09T12:26:12.750Z,2.00
2023-05-09T12:28:41.745Z,1.80
2023-05-09T12:31:11.353Z,1.83
2023-05-09T12:33:40.106Z,1.60
2023-05-09T12:36:10.976Z,1.70
2023-05-09T12:38:39.403Z,1.60
2023-05-09T12:41:21.840Z,1.67
2023-05-09T12:43:51.464Z,1.77
2023-05-09T12:46:22.426Z,1.63
2023-05-09T12:48:51.747Z,1.40
2023-05-09T12:51:21.327Z,1.87
2023-05-09T12:53:49.818Z,1.60
2023-05-09T12:56:19.263Z,1.70
2023-05-09T12:58:49.764Z,1.50
2023-05-09T13:01:18.150Z,1.60
2023-05-09T13:03:52.654Z,1.80
2023-05-09T13:06:21.128Z,1.60
2023-05-09T13:09:00.216Z,1.60
2023-05-09T13:11:28.731Z,1.60
2023-05-09T13:13:56.853Z,1.70
2023-05-09T13:16:25.285Z,1.80
2023-05-09T13:18:54.892Z,1.70
2023-05-09T13:21:22.831Z,1.73
2023-05-09T13:23:51.242Z,1.67
2023-05-09T13:26:19.434Z,1.60
2023-05-09T13:28:47.476Z,1.80
2023-05-09T13:31:15.643Z,1.98
2023-05-09T13:33:44.275Z,1.60
2023-05-09T13:36:13.657Z,1.30
2023-05-09T13:38:42.125Z,1.70
2023-05-09T13:41:10.918Z,1.70
2023-05-09T13:43:42.578Z,1.67
2023-05-09T13:46:10.587Z,2.10
2023-05-09T13:48:39.641Z,1.50
2023-05-09T13:51:08.308Z,1.90
2023-05-09T13:53:39.161Z,1.60
2023-05-09T13:56:09.244Z,1.60
2023-05-09T13:58:37.370Z,1.60
2023-05-09T14:01:05.493Z,1.43
2023-05-09T14:03:33.550Z,1.63
2023-05-09T14:06:01.589Z,1.50
2023-05-09T14:08:29.760Z,1.88
2023-05-09T14:10:59.043Z,1.67
2023-05-09T14:13:27.329Z,1.40
2023-05-09T14:15:55.330Z,1.60
2023-05-09T14:18:23.322Z,1.70
2023-05-09T14:20:51.258Z,1.65
2023-05-09T14:23:19.302Z,1.60
2023-05-09T14:25:47.305Z,2.08
2023-05-09T14:28:16.732Z,1.60
2023-05-09T14:30:44.809Z,1.65
2023-05-09T14:33:13.162Z,2.08
2023-05-09T14:35:41.778Z,2.13
2023-05-09T14:38:09.980Z,1.90
2023-05-09T14:40:38.061Z,1.70
2023-05-09T14:43:06.132Z,1.70
2023-05-09T14:45:35.441Z,1.60
2023-05-09T14:48:04.168Z,1.50
2023-05-09T14:50:33.414Z,1.60
2023-05-09T14:53:02.147Z,1.70
2023-05-09T14:55:31.206Z,1.88
2023-05-09T14:57:59.353Z,1.83
2023-05-09T15:00:28.498Z,1.70
2023-05-09T15:02:58.329Z,1.70
2023-05-09T15:05:26.335Z,1.63
2023-05-09T15:07:54.688Z,1.80
2023-05-09T15:10:22.880Z,1.73
2023-05-09T15:12:50.912Z,1.77
2023-05-09T15:15:20.575Z,1.58
2023-05-09T15:17:48.735Z,1.92
2023-05-09T15:20:19.519Z,1.50
2023-05-09T15:22:49.854Z,2.00
2023-05-09T15:25:18.422Z,1.50
2023-05-09T15:27:46.499Z,1.77
2023-05-09T15:30:15.419Z,2.00
2023-05-09T15:32:56.203Z,1.60
2023-05-09T15:38:17.474Z,1.67
2023-05-09T15:40:45.441Z,1.85
2023-05-09T15:43:13.693Z,1.90
2023-05-09T15:45:45.548Z,1.58
2023-05-09T15:48:13.810Z,1.73
2023-05-09T15:50:42.579Z,1.92
2023-05-09T15:53:10.700Z,2.03
2023-05-09T15:55:40.037Z,1.80
2023-05-09T15:58:08.501Z,1.73
2023-05-09T16:00:36.479Z,1.60
2023-05-09T16:03:05.052Z,1.80
2023-05-09T16:05:33.168Z,1.90
2023-05-09T16:08:01.142Z,1.60
2023-05-09T16:10:29.079Z,2.17
2023-05-09T16:12:58.474Z,2.93
2023-05-09T16:15:26.476Z,1.70
2023-05-09T16:17:54.490Z,1.93
2023-05-09T16:20:22.642Z,1.90
2023-05-09T16:22:50.842Z,2.20
2023-05-09T16:25:19.112Z,1.80
2023-05-09T16:27:47.045Z,1.70
2023-05-09T16:30:17.592Z,2.03
2023-05-09T16:32:45.924Z,1.90
2023-05-09T16:35:13.957Z,2.13
2023-05-09T16:37:41.997Z,2.27
2023-05-09T16:40:11.166Z,2.30
2023-05-09T16:42:56.550Z,2.17
2023-05-09T16:45:32.708Z,2.80
2023-05-09T16:48:30.661Z,2.67
2023-05-09T16:53:47.782Z,2.70
2023-05-09T16:56:15.814Z,2.30
2023-05-09T16:58:44.932Z,2.20
2023-05-09T17:01:14.326Z,2.27
2023-05-09T17:03:42.370Z,2.40
2023-05-09T17:06:10.328Z,2.33
2023-05-09T17:08:38.623Z,2.20
2023-05-09T17:11:06.669Z,2.40
2023-05-09T17:13:34.671Z,2.30
2023-05-09T17:16:02.768Z,2.37
2023-05-09T17:18:37.654Z,2.33
2023-05-09T17:21:06.761Z,2.00
2023-05-09T17:23:34.790Z,1.83
2023-05-09T17:26:02.847Z,1.93
2023-05-09T17:28:50.813Z,2.00
2023-05-09T17:31:18.957Z,2.40
2023-05-09T17:34:27.012Z,2.00
2023-05-09T17:36:56.594Z,2.30
2023-05-09T17:39:24.989Z,2.30
2023-05-09T17:41:53.273Z,2.17
2023-05-09T17:44:21.386Z,2.17
2023-05-09T17:46:50.389Z,1.80
2023-05-09T17:49:18.780Z,1.90
2023-05-09T17:51:46.787Z,2.10
2023-05-09T17:54:18.974Z,2.20
2023-05-09T17:56:50.912Z,2.47
2023-05-09T17:59:18.944Z,2.37
2023-05-09T18:01:46.936Z,2.00
2023-05-09T18:04:14.990Z,2.20
2023-05-09T18:06:43.202Z,2.40
2023-05-09T18:09:11.169Z,2.40
2023-05-09T18:11:40.616Z,2.77
2023-05-09T18:14:08.519Z,2.63
2023-05-09T18:16:36.494Z,2.40
2023-05-09T18:19:04.479Z,2.50
2023-05-09T18:21:32.860Z,2.47
2023-05-09T18:24:01.340Z,2.70
2023-05-09T18:26:29.331Z,2.57
2023-05-09T18:28:59.017Z,2.70
2023-05-09T18:31:27.056Z,2.87
2023-05-09T18:33:55.056Z,3.10
2023-05-09T18:36:23.377Z,3.23
2023-05-09T18:38:51.384Z,3.23
2023-05-09T18:41:19.318Z,3.00
2023-05-09T18:43:47.315Z,2.70
2023-05-09T18:46:19.837Z,3.43
2023-05-09T18:48:50.169Z,3.10
2023-05-09T18:51:18.684Z,3.23
2023-05-09T18:53:47.663Z,3.00
2023-05-09T18:56:17.192Z,3.00
2023-05-09T18:58:45.184Z,3.30
2023-05-09T19:01:13.357Z,2.80
2023-05-09T19:03:45.904Z,3.20
2023-05-09T19:06:15.367Z,3.50
2023-05-09T19:08:44.213Z,3.53
2023-05-09T19:11:12.804Z,3.30
2023-05-09T19:13:48.172Z,3.50
2023-05-09T19:16:18.831Z,3.30
2023-05-09T19:18:48.678Z,4.07
2023-05-09T19:21:18.787Z,3.30
2023-05-09T19:23:47.853Z,3.40
2023-05-09T19:26:16.557Z,3.80
2023-05-09T19:28:45.823Z,3.50
2023-05-09T19:31:14.490Z,3.60
2023-05-09T19:33:45.652Z,4.60
2023-05-09T19:36:15.364Z,4.20
2023-05-09T19:38:43.662Z,3.73
2023-05-09T19:41:12.751Z,3.67
2023-05-09T19:43:41.131Z,4.20
2023-05-09T19:46:09.229Z,4.77
2023-05-09T19:48:37.433Z,5.37
2023-05-09T19:51:06.409Z,5.60
2023-05-09T19:53:35.750Z,5.40
2023-05-09T19:56:03.817Z,5.40
2023-05-09T19:58:31.799Z,4.83
2023-05-09T20:00:59.794Z,4.90
2023-05-09T20:03:27.855Z,4.67
2023-05-09T20:05:55.956Z,5.10
2023-05-09T20:08:25.460Z,7.20
2023-05-09T20:10:55.210Z,6.30
2023-05-09T20:13:23.231Z,6.40
2023-05-09T20:15:51.335Z,7.60
2023-05-09T20:18:19.415Z,6.67
2023-05-09T20:20:47.553Z,6.23
2023-05-09T20:23:15.924Z,4.87
2023-05-09T20:25:44.092Z,5.30
2023-05-09T20:28:16.295Z,5.33
2023-05-09T20:30:44.254Z,4.93
2023-05-09T20:33:12.252Z,4.97
2023-05-09T20:35:42.800Z,5.03
2023-05-09T20:38:10.855Z,5.13
2023-05-09T20:40:39.323Z,5.17
2023-05-09T20:43:07.782Z,5.10
2023-05-09T20:45:37.668Z,5.80
2023-05-09T20:48:06.657Z,5.90
2023-05-09T20:50:37.682Z,5.70
2023-05-09T20:53:05.638Z,5.47
2023-05-09T20:55:33.876Z,6.57
2023-05-09T20:58:01.865Z,6.07
2023-05-09T21:00:30.041Z,6.20
2023-05-09T21:02:59.637Z,5.77
2023-05-09T21:05:27.725Z,5.60
2023-05-09T21:07:55.954Z,5.27
2023-05-09T21:10:23.949Z,5.03
2023-05-09T21:12:52.065Z,4.90
2023-05-09T21:15:20.215Z,5.53
2023-05-09T21:17:48.255Z,4.87
2023-05-09T21:20:18.072Z,4.70
2023-05-09T21:22:46.306Z,5.10
2023-05-09T21:25:15.566Z,5.37
2023-05-09T21:27:43.611Z,5.30
2023-05-09T21:30:12.347Z,4.83
2023-05-09T21:32:40.448Z,4.97
2023-05-09T21:35:12.729Z,4.90
2023-05-09T21:37:42.130Z,4.57
2023-05-09T21:40:11.038Z,5.57
2023-05-09T21:42:40.242Z,5.00
2023-05-09T21:45:09.501Z,5.17
2023-05-09T21:47:39.500Z,5.17
2023-05-09T21:50:08.370Z,5.00
2023-05-09T21:52:36.354Z,5.43
2023-05-09T21:55:06.326Z,4.77
2023-05-09T21:57:34.382Z,5.17
2023-05-09T22:00:05.049Z,5.20
2023-05-09T22:02:42.822Z,4.87
2023-05-09T22:05:11.681Z,5.30
2023-05-09T22:07:39.731Z,5.40
2023-05-09T22:10:10.218Z,5.37
2023-05-09T22:12:38.207Z,6.17
2023-05-09T22:15:07.487Z,5.97
2023-05-09T22:17:35.556Z,6.20
2023-05-09T22:20:04.122Z,6.57
2023-05-09T22:22:33.306Z,7.10
2023-05-09T22:25:01.321Z,6.90
2023-05-09T22:27:30.683Z,6.40
2023-05-09T22:29:58.637Z,6.63
2023-05-09T22:32:26.693Z,6.53
2023-05-09T22:34:55.063Z,6.07
2023-05-09T22:37:22.997Z,5.90
2023-05-09T22:39:51.087Z,6.17
2023-05-09T22:42:19.089Z,6.03
2023-05-09T22:44:49.699Z,5.37
2023-05-09T22:47:17.699Z,5.53
2023-05-09T22:49:46.006Z,5.20
2023-05-09T22:52:14.069Z,5.60
2023-05-09T22:54:42.143Z,5.33
2023-05-09T22:57:10.208Z,5.60
2023-05-09T22:59:38.288Z,5.37
2023-05-09T23:02:07.774Z,5.23
2023-05-09T23:04:35.722Z,5.07
2023-05-09T23:07:03.689Z,5.53
2023-05-09T23:09:31.616Z,5.53
2023-05-09T23:11:59.874Z,5.80
2023-05-09T23:14:28.233Z,5.33
2023-05-09T23:16:56.738Z,5.17
2023-05-09T23:19:26.399Z,5.60
2023-05-09T23:21:54.650Z,5.40
2023-05-09T23:24:22.723Z,5.57
2023-05-09T23:26:50.683Z,5.27
2023-05-09T23:29:18.666Z,5.03
2023-05-09T23:31:47.036Z,5.47
2023-05-09T23:34:15.143Z,5.37
2023-05-09T23:36:44.447Z,5.77
2023-05-09T23:39:12.484Z,5.33
2023-05-09T23:41:40.554Z,5.60
2023-05-09T23:44:08.536Z,5.13
2023-05-09T23:46:36.602Z,5.47
2023-05-09T23:49:04.975Z,5.57
2023-05-09T23:51:32.930Z,5.57
2023-05-09T23:54:02.276Z,5.87
2023-05-09T23:56:30.628Z,5.50
2023-05-09T23:58:58.767Z,5.57
